Latest Weather Observations for Gingin Airport

IDW60801

Issued at 9:33 am WST Wednesday 22 February 2017 (issued every 30 minutes, with the page automatically refreshed every 10 minutes)

About weather observations | Map of weather stations | Latest weather observations for WA | Other Formats
Station Details ID: 009178 Name: GINGIN AERO Lat: -31.46 Lon: 115.86 Height: 73.0 m
Data from the previous 72 hours. | See also: Recent months at Gingin Airport
Date/Time
WST
Temp
°C
App
Temp
°C
Dew
Point
°C
Rel
Hum
%
Delta-T
°C
Wind Press
QNH
hPa
Press
MSL
hPa
Rain since
9am
mm
Dir  Spd
km/h
Gust
km/h
Spd
kts
Gust
kts
22/09:30am 18.6 15.3 8.0 50 5.4 SE 15 20 8 11 1022.2 1021.8 0.0
22/09:00am 17.6 13.9 7.9 53 4.9 SE 17 24 9 13 1022.3 1021.9 0.0
22/08:30am 17.3 14.6 9.0 58 4.3 ESE 13 17 7 9 1022.4 1022.0 0.0
22/08:00am 15.9 13.5 8.6 62 3.7 ESE 11 13 6 7 1022.2 1021.8 0.0
22/07:30am 13.6 11.5 8.4 71 2.6 ESE 9 11 5 6 1022.0 1021.6 0.0
22/07:00am 11.0 9.9 8.6 85 1.2 SE 4 7 2 4 1021.5 1021.1 0.0
22/06:30am 8.5 7.8 7.0 90 0.7 CALM 0 0 0 0 1021.1 1020.7 0.0
22/06:00am 7.4 5.3 5.9 90 0.7 SE 6 6 3 3 1020.7 1020.3 0.0
22/05:30am 7.0 4.8 5.3 89 0.8 SE 6 7 3 4 1020.1 1019.7 0.0
22/05:00am 7.7 6.7 5.8 88 0.9 CALM 0 0 0 0 1020.1 1019.7 0.0
22/04:30am 8.1 5.9 6.2 88 0.9 SE 7 9 4 5 1020.0 1019.6 0.0
22/04:00am 8.6 6.6 6.2 85 1.1 SE 6 6 3 3 1019.8 1019.4 0.0
22/03:30am 9.2 7.1 6.8 85 1.1 SE 7 9 4 5 1019.6 1019.2 0.0
22/03:00am 9.4 7.5 6.7 83 1.3 S 6 7 3 4 1019.3 1018.9 0.0
22/02:30am 9.2 7.4 5.6 78 1.6 S 4 7 2 4 1019.2 1018.8 0.0
22/02:00am 11.0 9.0 7.1 77 1.9 S 7 9 4 5 1019.0 1018.6 0.0
22/01:30am 11.2 8.9 7.5 78 1.8 SE 9 11 5 6 1018.9 1018.5 0.0
22/01:00am 10.7 8.0 7.4 80 1.6 SSE 11 13 6 7 1019.0 1018.6 0.0
22/12:30am 9.9 8.8 7.0 82 1.4 S 2 6 1 3 1019.1 1018.7 0.0
22/12:00am 10.4 9.7 7.1 80 1.6 CALM 0 0 0 0 1019.1 1018.7 0.0
 
Date/Time
WST
Temp
°C
App
Temp
°C
Dew
Point
°C
Rel
Hum
%
Delta-T
°C
Wind Press
QNH
hPa
Press
MSL
hPa
Rain since
9am
mm
Dir  Spd
km/h
Gust
km/h
Spd
kts
Gust
kts
21/11:30pm 10.8 10.2 7.3 79 1.7 CALM 0 0 0 0 1019.2 1018.8 0.0
21/11:00pm 11.7 11.1 7.6 76 2.0 CALM 0 0 0 0 1019.3 1018.9 0.0
21/10:30pm 13.3 11.7 8.2 71 2.5 SSW 6 6 3 3 1019.4 1019.0 0.0
21/10:00pm 15.0 13.4 8.7 66 3.2 SSW 7 9 4 5 1019.4 1019.0 0.0
21/09:30pm 15.5 13.6 9.0 65 3.3 SSW 9 11 5 6 1019.2 1018.8 0.0
21/09:00pm 16.0 14.6 9.4 65 3.4 S 7 9 4 5 1018.9 1018.5 0.0
21/08:30pm 16.8 14.6 9.5 62 3.8 SSW 11 15 6 8 1018.6 1018.2 0.0
21/08:00pm 17.6 14.4 10.0 61 4.0 SSW 17 26 9 14 1018.4 1018.0 0.0
21/07:30pm 18.0 15.2 9.9 59 4.3 SSW 15 20 8 11 1018.0 1017.6 0.0
21/07:00pm 17.8 13.5 9.2 57 4.5 SSW 22 30 12 16 1017.6 1017.2 0.0
21/06:30pm 18.4 13.8 9.5 56 4.7 SW 24 35 13 19 1017.2 1016.8 0.0
21/06:00pm 19.1 13.1 8.7 51 5.4 SSW 30 39 16 21 1016.7 1016.4 0.0
21/05:30pm 19.5 13.9 8.8 50 5.6 SSW 28 35 15 19 1016.3 1016.0 0.0
21/05:00pm 20.0 14.1 9.0 49 5.8 SSW 30 39 16 21 1016.1 1015.8 0.0
21/04:30pm 20.6 15.6 9.5 49 5.9 SSW 26 39 14 21 1015.9 1015.6 0.0
21/04:00pm 21.4 15.6 9.3 46 6.5 SW 30 37 16 20 1015.6 1015.3 0.0
21/03:30pm 21.4 14.5 9.0 45 6.6 SSW 35 44 19 24 1015.8 1015.5 0.0
21/03:00pm 21.4 14.5 7.3 40 7.3 SSW 33 46 18 25 1015.8 1015.5 0.0
21/02:30pm 21.0 14.3 8.0 43 6.8 SW 33 44 18 24 1015.7 1015.4 0.0
21/02:00pm 21.0 14.7 8.9 46 6.4 SSW 32 41 17 22 1015.6 1015.3 0.0
21/01:30pm 21.5 14.9 8.7 44 6.8 SW 33 44 18 24 1015.6 1015.3 0.0
21/01:00pm 21.0 14.2 7.6 42 6.9 SW 33 52 18 28 1015.5 1015.2 0.0
21/12:54pm 21.5 14.5 7.0 39 7.4 SSW 33 52 18 28 1015.5 1015.2 0.0
21/12:30pm 22.1 14.6 6.3 36 8.0 SW 35 46 19 25 1015.4 1015.1 0.0
21/12:00pm 21.8 14.2 5.7 35 8.1 SW 35 50 19 27 1015.5 1015.2 0.0
21/11:30am 21.6 14.3 7.4 40 7.4 SSW 35 52 19 28 1015.5 1015.2 0.0
21/11:00am 21.2 14.8 9.4 47 6.3 SW 33 54 18 29 1015.4 1015.1 0.0
21/10:30am 21.5 15.4 10.3 49 6.1 SSW 33 54 18 29 1015.4 1015.1 0.0
21/10:00am 20.7 14.6 11.9 57 4.9 SSW 35 46 19 25 1015.3 1015.0 0.0
21/09:37am 19.5 14.4 13.0 66 3.7 SW 32 52 17 28 1015.0 1014.7 0.0
21/09:30am 20.2 14.7 11.9 59 4.6 SW 32 43 17 23 1015.0 1014.7 0.0
21/09:00am 19.2 15.5 14.0 72 3.0 SW 26 37 14 20 1014.6 1014.3 0.2
21/08:30am 17.8 14.1 15.1 84 1.6 SW 28 46 15 25 1014.3 1014.0 0.2
21/08:22am 17.8 13.9 14.5 81 1.9 SW 28 46 15 25 1014.3 1014.0 0.2
21/08:00am 17.8 15.8 15.4 86 1.4 WSW 20 28 11 15 1014.0 1013.7 0.0
21/07:30am 16.5 11.7 14.5 88 1.1 WSW 33 50 18 27 1013.7 1013.4 0.0
21/07:19am 17.1 14.6 14.0 82 1.8 W 20 48 11 26 1013.4 1013.0 0.0
21/07:00am 16.0 14.8 11.6 75 2.4 NW 9 13 5 7 1013.1 1012.7 0.0
21/06:30am 14.8 13.5 11.2 79 1.9 NW 9 11 5 6 1012.9 1012.5 0.0
21/06:00am 13.7 11.8 10.5 81 1.7 WNW 11 13 6 7 1012.8 1012.4 0.0
21/05:30am 13.9 11.8 9.9 77 2.1 WNW 11 13 6 7 1012.5 1012.1 0.0
21/05:00am 14.0 11.5 9.6 75 2.3 NW 13 13 7 7 1012.3 1011.9 0.0
21/04:30am 14.3 12.2 9.7 74 2.4 WNW 11 13 6 7 1012.2 1011.8 0.0
21/04:00am 14.3 12.5 9.5 73 2.5 WNW 9 11 5 6 1012.0 1011.6 0.0
21/03:30am 16.2 14.1 9.8 66 3.4 W 11 13 6 7 1012.1 1011.7 0.0
21/03:00am 16.8 14.4 10.2 65 3.5 W 13 17 7 9 1012.4 1012.0 0.0
21/02:30am 17.3 14.9 10.0 62 3.9 WSW 13 19 7 10 1012.5 1012.1 0.0
21/02:00am 17.7 14.5 10.1 61 4.0 WSW 17 20 9 11 1012.8 1012.4 0.0
21/01:30am 18.5 15.1 10.6 60 4.3 SW 19 30 10 16 1012.7 1012.3 0.0
21/01:00am 18.5 15.1 10.6 60 4.3 WSW 19 24 10 13 1012.8 1012.4 0.0
21/12:30am 18.0 15.9 11.3 65 3.7 WSW 13 17 7 9 1013.1 1012.7 0.0
21/12:00am 18.0 15.5 11.1 64 3.7 WSW 15 20 8 11 1013.3 1012.9 0.0
 
Date/Time
WST
Temp
°C
App
Temp
°C
Dew
Point
°C
Rel
Hum
%
Delta-T
°C
Wind Press
QNH
hPa
Press
MSL
hPa
Rain since
9am
mm
Dir  Spd
km/h
Gust
km/h
Spd
kts
Gust
kts
20/11:30pm 17.7 16.1 11.5 67 3.4 WSW 11 15 6 8 1013.1 1012.7 0.0
20/11:00pm 18.2 16.0 12.2 68 3.3 SW 15 19 8 10 1013.2 1012.8 0.0
20/10:30pm 19.2 16.1 12.2 64 3.9 SW 20 28 11 15 1013.5 1013.2 0.0
20/10:00pm 19.5 16.6 13.0 66 3.7 SW 20 24 11 13 1013.7 1013.4 0.0
20/09:30pm 19.4 17.1 14.2 72 3.0 SW 19 26 10 14 1013.8 1013.5 0.0
20/09:00pm 19.3 18.0 14.8 75 2.6 SW 15 20 8 11 1013.9 1013.6 0.0
20/08:30pm 19.4 17.8 14.9 75 2.6 SW 17 22 9 12 1013.4 1013.0 0.0
20/08:00pm 20.0 18.3 14.6 71 3.2 SW 17 20 9 11 1013.0 1012.6 0.0
20/07:30pm 19.9 18.1 14.5 71 3.2 SW 17 24 9 13 1012.6 1012.2 0.0
20/07:00pm 20.2 17.4 14.3 69 3.4 SW 22 28 12 15 1012.2 1011.8 0.0
20/06:30pm 20.5 16.9 14.2 67 3.7 SW 26 32 14 17 1011.9 1011.5 0.0
20/06:00pm 21.3 16.8 13.7 62 4.4 SW 30 43 16 23 1011.5 1011.1 0.0
20/05:30pm 22.1 18.1 14.0 60 4.7 SW 28 35 15 19 1011.1 1010.7 0.0
20/05:00pm 23.2 18.8 14.2 57 5.3 SW 30 35 16 19 1011.1 1010.7 0.0
20/04:30pm 23.3 19.2 13.8 55 5.6 SW 28 33 15 18 1011.0 1010.6 0.0
20/04:00pm 23.8 20.5 13.9 54 5.8 SW 24 32 13 17 1010.7 1010.3 0.0
20/03:30pm 24.6 20.9 13.8 51 6.4 SW 26 33 14 18 1010.9 1010.5 0.0
20/03:00pm 24.6 21.0 13.2 49 6.7 SSW 24 32 13 17 1011.0 1010.6 0.0
20/02:30pm 24.9 21.9 13.8 50 6.5 SW 22 32 12 17 1011.4 1011.0 0.0
20/02:00pm 25.7 22.0 13.9 48 7.0 SSW 26 35 14 19 1011.5 1011.1 0.0
20/01:30pm 25.8 23.1 13.6 47 7.2 SW 20 28 11 15 1012.1 1011.7 0.0
20/01:00pm 26.4 23.9 14.2 47 7.3 SSW 20 26 11 14 1012.6 1012.2 0.0
20/12:30pm 25.3 23.0 14.1 50 6.6 SW 19 32 10 17 1012.8 1012.4 0.0
20/12:00pm 24.8 22.3 14.0 51 6.4 SW 20 26 11 14 1013.0 1012.6 0.0
20/11:30am 24.2 21.7 14.0 53 6.0 SW 20 30 11 16 1013.2 1012.8 0.0
20/11:00am 25.1 22.1 13.6 49 6.8 SW 22 32 12 17 1013.4 1013.0 0.0
20/10:30am 24.2 22.3 15.1 56 5.5 SSW 19 26 10 14 1013.5 1013.2 0.0
20/10:00am 23.6 22.0 16.4 64 4.4 SW 20 26 11 14 1013.7 1013.4 0.0
20/09:30am 23.4 22.2 16.2 64 4.4 SW 17 24 9 13 1013.7 1013.4 0.0
20/09:00am 23.0 22.5 16.8 68 3.8 SW 15 20 8 11 1013.7 1013.4 0.0
20/08:30am 21.6 21.1 16.8 74 2.9 SW 15 19 8 10 1013.7 1013.4 0.0
20/08:00am 21.0 19.6 17.0 78 2.4 SSW 20 26 11 14 1013.6 1013.3 0.0
20/07:30am 20.8 19.4 17.0 79 2.3 SSW 20 26 11 14 1013.3 1012.9 0.0
20/07:00am 20.6 19.6 17.6 83 1.9 SSW 19 26 10 14 1013.2 1012.8 0.0
20/06:30am 20.5 20.5 18.1 86 1.5 SSW 15 20 8 11 1012.9 1012.5 0.0
20/06:00am 20.0 20.0 18.1 89 1.2 SW 15 20 8 11 1012.8 1012.4 0.0
20/05:30am 19.8 20.6 18.1 90 1.1 SW 11 15 6 8 1012.8 1012.4 0.0
20/05:00am 19.5 20.2 18.0 91 0.9 SW 11 15 6 8 1012.5 1012.1 0.0
20/04:30am 19.1 19.4 17.9 93 0.7 SW 13 17 7 9 1012.3 1011.9 0.0
20/04:00am 17.7 19.9 16.4 92 0.8 CALM 0 0 0 0 1012.2 1011.8 0.0
20/03:30am 17.7 18.4 16.2 91 0.9 NW 7 9 4 5 1012.5 1012.1 0.0
20/03:00am 18.1 18.6 16.6 91 0.9 NNW 9 13 5 7 1012.6 1012.2 0.0
20/02:30am 18.0 18.8 16.3 90 1.0 N 7 11 4 6 1012.6 1012.2 0.0
20/02:00am 18.6 19.1 16.6 88 1.2 WNW 9 11 5 6 1012.8 1012.4 0.0
20/01:30am 18.9 19.9 16.3 85 1.6 NNW 6 9 3 5 1012.9 1012.5 0.0
20/01:00am 20.5 21.7 17.3 82 2.0 SW 7 9 4 5 1012.9 1012.5 0.0
20/12:30am 20.4 21.4 16.8 80 2.2 SW 7 11 4 6 1013.0 1012.6 0.0
20/12:00am 21.3 21.6 17.1 77 2.6 SW 11 13 6 7 1013.3 1012.9 0.0
 
Date/Time
WST
Temp
°C
App
Temp
°C
Dew
Point
°C
Rel
Hum
%
Delta-T
°C
Wind Press
QNH
hPa
Press
MSL
hPa
Rain since
9am
mm
Dir  Spd
km/h
Gust
km/h
Spd
kts
Gust
kts
19/11:30pm 21.6 22.5 16.1 71 3.3 WSW 6 11 3 6 1013.6 1013.3 0.0
19/11:00pm 22.2 21.8 16.2 69 3.6 SW 13 19 7 10 1013.5 1013.2 0.0
19/10:30pm 22.8 22.3 15.9 65 4.2 SSW 13 17 7 9 1013.5 1013.2 0.0
19/10:00pm 23.3 23.1 17.7 71 3.5 SW 15 20 8 11 1013.4 1013.0 0.0
19/09:30pm 23.4 24.1 20.5 84 1.9 WSW 17 20 9 11 1013.3 1012.9 0.0
19/09:00pm 23.7 24.6 20.8 84 1.9 WSW 17 20 9 11 1013.4 1013.0 0.0
19/08:30pm 24.4 25.6 20.7 80 2.4 WSW 15 20 8 11 1012.9 1012.5 0.0
19/08:00pm 24.9 24.9 20.2 75 3.1 WSW 20 24 11 13 1012.5 1012.1 0.0
19/07:30pm 25.9 25.8 20.0 70 3.8 WSW 20 24 11 13 1012.3 1011.9 0.0
19/07:00pm 27.3 27.7 19.9 64 4.8 WSW 17 19 9 10 1012.2 1011.8 0.0
19/06:30pm 29.2 29.8 19.5 56 6.3 WSW 15 19 8 10 1011.9 1011.5 0.0
19/06:00pm 31.0 31.3 18.0 45 8.4 WSW 13 17 7 9 1011.5 1011.1 0.0
19/05:30pm 32.5 31.2 15.9 36 10.4 WSW 17 20 9 11 1011.5 1011.1 0.0
19/05:00pm 33.3 31.7 16.6 36 10.6 W 20 26 11 14 1011.5 1011.1 0.0
19/04:30pm 33.7 31.7 17.4 37 10.5 W 24 30 13 16 1011.4 1011.0 0.0
19/04:00pm 34.8 33.1 18.0 37 10.9 WNW 24 32 13 17 1011.4 1011.0 0.0
19/03:30pm 34.8 32.5 17.5 35 11.2 W 26 37 14 20 1011.6 1011.2 0.0
19/03:00pm 35.8 33.6 17.9 34 11.7 W 26 33 14 18 1011.6 1011.2 0.0
19/02:30pm 36.2 34.4 18.7 35 11.5 WNW 26 37 14 20 1011.9 1011.5 0.0
19/02:00pm 36.0 34.9 18.6 36 11.5 W 22 35 12 19 1011.9 1011.5 0.0
19/01:30pm 36.8 35.8 17.9 33 12.3 W 20 28 11 15 1012.2 1011.8 0.0
19/01:00pm 36.7 35.4 17.3 31 12.6 W 20 28 11 15 1012.3 1011.9 0.0
19/12:30pm 38.0 37.8 15.7 26 14.2 NW 11 22 6 12 1012.4 1012.0 0.0
19/12:00pm 37.4 35.1 14.7 26 14.2 NNW 20 32 11 17 1013.0 1012.6 0.0
19/11:30am 35.9 32.4 13.4 26 13.8 N 24 37 13 20 1013.6 1013.3 0.0
19/11:00am 35.6 31.8 12.5 24 13.9 N 24 32 13 17 1014.1 1013.8 0.0
19/10:30am 35.4 32.2 13.0 26 13.6 N 22 32 12 17 1014.3 1014.0 0.0
19/10:00am 33.5 29.5 13.0 29 12.4 N 26 33 14 18 1014.8 1014.5 0.0

Other Formats:

Comma delimited format used in spreadsheet applications
http://www.bom.gov.au/fwo/IDW60801/IDW60801.95612.axf

JavaScript Object Notation format (JSON) in row-major order
http://www.bom.gov.au/fwo/IDW60801/IDW60801.95612.json